Time;durP1;ratioP1;P1;durP2;ratioP2;P2;SDS_P1;SDS_P2;PMS_P1;PMS_P2;Temp;Humidity;BMP_temperature;BMP_pressure;BME280_temperature;BME280_humidity;BME280_pressure;Samples;Min_cycle;Max_cycle;Signal;HPM_P1;HPM_P2
2021/12/20 00:01:20;;;;;;;13.17;12.80;;;19.90;80.10;;;;;;5076314;28;20501;-48
2021/12/20 00:03:48;;;;;;;12.50;12.10;;;19.80;79.50;;;;;;5072862;28;20451;-48
2021/12/20 00:06:14;;;;;;;12.93;12.53;;;19.80;79.70;;;;;;5073056;28;20940;-51
2021/12/20 00:08:41;;;;;;;12.50;12.20;;;19.70;80.40;;;;;;5072974;28;20524;-49
2021/12/20 00:11:08;;;;;;;12.80;12.40;;;19.70;81.20;;;;;;5087750;28;20469;-48
2021/12/20 00:13:35;;;;;;;13.17;12.77;;;19.60;81.90;;;;;;5092965;28;20972;-48
2021/12/20 00:16:01;;;;;;;12.90;12.47;;;19.50;82.50;;;;;;5093190;28;20472;-49
2021/12/20 00:18:28;;;;;;;13.17;12.77;;;19.50;82.90;;;;;;5092962;28;20446;-48
2021/12/20 00:20:56;;;;;;;12.20;11.90;;;19.40;83.30;;;;;;5079819;28;20450;-51
2021/12/20 00:23:23;;;;;;;12.83;12.43;;;19.40;83.80;;;;;;5072609;28;20446;-49
2021/12/20 00:25:50;;;;;;;12.43;12.13;;;19.40;84.30;;;;;;5072767;28;20443;-48
2021/12/20 00:28:17;;;;;;;12.53;12.13;;;19.40;84.90;;;;;;5072579;28;20451;-49
2021/12/20 00:30:45;;;;;;;11.87;11.47;;;19.40;85.40;;;;;;5080935;28;20890;-49
2021/12/20 00:33:12;;;;;;;13.13;12.50;;;19.30;86.00;;;;;;5092179;28;20442;-48
2021/12/20 00:35:38;;;;;;;12.30;12.00;;;19.30;86.50;;;;;;5092862;28;20960;-48
2021/12/20 00:40:51;;;;;;;12.57;12.17;;;19.20;87.20;;;;;;5080552;28;20804;-49
2021/12/20 00:43:18;;;;;;;12.50;12.20;;;19.20;87.80;;;;;;5072109;28;20451;-48
2021/12/20 00:45:45;;;;;;;12.90;12.50;;;19.20;88.10;;;;;;5072282;28;20447;-49
2021/12/20 00:48:11;;;;;;;13.10;12.70;;;19.10;88.50;;;;;;5075578;28;20442;-48
2021/12/20 00:50:39;;;;;;;12.53;12.20;;;19.10;88.80;;;;;;5092295;28;20474;-49
2021/12/20 00:53:08;;;;;;;13.50;12.83;;;19.00;89.40;;;;;;5092294;28;20446;-49
2021/12/20 00:55:35;;;;;;;12.47;12.07;;;19.00;90.00;;;;;;5092481;28;20442;-53
2021/12/20 00:58:02;;;;;;;12.30;11.90;;;18.90;90.30;;;;;;5090147;28;20449;-53
2021/12/20 01:00:30;;;;;;;13.13;12.73;;;18.90;90.80;;;;;;5072133;28;20463;-54
2021/12/20 01:02:58;;;;;;;13.03;12.63;;;18.80;91.00;;;;;;5071953;28;20446;-52
2021/12/20 01:05:26;;;;;;;12.70;12.30;;;18.80;91.70;;;;;;5072127;28;20443;-53
2021/12/20 01:07:56;;;;;;;12.73;12.33;;;18.80;91.70;;;;;;5072191;28;20443;-51
2021/12/20 01:10:25;;;;;;;13.00;12.60;;;18.80;92.00;;;;;;5092038;28;20482;-53
2021/12/20 01:12:54;;;;;;;13.03;12.67;;;18.80;92.60;;;;;;5091937;28;20446;-49
2021/12/20 01:15:27;;;;;;;13.00;12.60;;;18.80;92.60;;;;;;5092205;28;20849;-49
2021/12/20 01:17:53;;;;;;;12.67;12.37;;;18.80;93.10;;;;;;5077337;28;20458;-51
2021/12/20 01:20:20;;;;;;;12.00;11.70;;;18.70;93.20;;;;;;5071658;28;20455;-48
2021/12/20 01:22:49;;;;;;;13.33;12.83;;;18.70;93.70;;;;;;5071634;28;20435;-50
2021/12/20 01:25:16;;;;;;;13.23;12.50;;;18.70;93.70;;;;;;5071723;28;20439;-52
2021/12/20 01:27:45;;;;;;;12.80;12.40;;;18.70;93.90;;;;;;5083966;28;20441;-52
2021/12/20 01:30:14;;;;;;;13.27;12.87;;;18.70;94.10;;;;;;5091459;28;20829;-51
2021/12/20 01:32:42;;;;;;;12.30;11.90;;;18.60;94.40;;;;;;5091559;28;20445;-50
2021/12/20 01:35:09;;;;;;;11.90;11.60;;;18.60;94.80;;;;;;5091856;28;20446;-48
2021/12/20 01:37:36;;;;;;;12.80;12.40;;;18.60;95.10;;;;;;5080052;28;20458;-51
2021/12/20 01:40:06;;;;;;;12.77;12.37;;;18.60;95.80;;;;;;5071480;28;20489;-48
2021/12/20 01:42:34;;;;;;;12.10;11.80;;;18.60;96.30;;;;;;5071076;28;20443;-49
2021/12/20 01:45:03;;;;;;;13.20;12.57;;;18.60;96.50;;;;;;5071650;28;20542;-51
2021/12/20 01:47:34;;;;;;;12.80;12.30;;;18.60;96.80;;;;;;5081436;28;20487;-51
2021/12/20 01:50:06;;;;;;;13.47;13.00;;;18.60;97.00;;;;;;5091491;28;20493;-52
2021/12/20 01:52:40;;;;;;;12.67;12.27;;;18.50;97.00;;;;;;5091486;28;20969;-52
2021/12/20 01:55:08;;;;;;;12.30;12.00;;;18.50;97.50;;;;;;5091638;28;20527;-51
2021/12/20 01:57:35;;;;;;;12.47;12.07;;;18.50;97.40;;;;;;5080544;28;20447;-48
2021/12/20 02:00:04;;;;;;;12.50;12.10;;;18.50;97.80;;;;;;5071274;28;21169;-51
2021/12/20 02:02:31;;;;;;;12.57;12.20;;;18.50;97.80;;;;;;5083714;22;20488;-47
2021/12/20 02:05:06;;;;;;;12.10;11.70;;;18.50;98.00;;;;;;5066408;28;20750;-46
2021/12/20 02:07:37;;;;;;;12.80;12.40;;;18.50;98.30;;;;;;5060328;28;20963;-46
2021/12/20 02:10:05;;;;;;;12.83;12.43;;;18.50;98.30;;;;;;5051226;28;20542;-49
2021/12/20 02:12:32;;;;;;;12.77;12.37;;;18.40;98.60;;;;;;5032713;28;20473;-45
2021/12/20 02:14:58;;;;;;;12.63;12.13;;;18.40;99.00;;;;;;5031235;28;20452;-48
2021/12/20 02:17:26;;;;;;;13.20;12.70;;;18.40;98.60;;;;;;5030981;28;20441;-46
2021/12/20 02:19:53;;;;;;;12.80;12.40;;;18.40;98.70;;;;;;5031214;28;20493;-45
2021/12/20 02:22:21;;;;;;;12.67;12.30;;;18.40;99.00;;;;;;5030876;28;20469;-45
2021/12/20 02:24:47;;;;;;;12.80;12.40;;;18.40;99.20;;;;;;5030919;28;20791;-48
2021/12/20 02:27:16;;;;;;;12.03;11.73;;;18.40;99.40;;;;;;5031004;28;20472;-46
2021/12/20 02:29:58;;;;;;;12.90;12.47;;;18.40;99.40;;;;;;5031049;28;20452;-52
2021/12/20 02:37:56;;;;;;;12.40;11.90;;;18.50;99.20;;;;;;5030661;28;20572;-45
2021/12/20 02:40:23;;;;;;;12.60;12.30;;;18.50;99.10;;;;;;5030829;28;20491;-47
2021/12/20 02:42:51;;;;;;;12.50;12.20;;;18.50;99.30;;;;;;5030894;28;20453;-46
2021/12/20 02:45:18;;;;;;;12.10;11.73;;;18.50;99.20;;;;;;5030688;28;20459;-47
2021/12/20 02:47:48;;;;;;;11.90;11.60;;;18.50;99.40;;;;;;5031084;28;20509;-46
2021/12/20 02:50:15;;;;;;;12.83;12.43;;;18.40;99.50;;;;;;5031035;28;20563;-46
2021/12/20 02:52:43;;;;;;;12.90;12.50;;;18.30;99.60;;;;;;5030640;28;20469;-45
2021/12/20 02:55:11;;;;;;;13.40;12.90;;;18.40;99.90;;;;;;5033351;28;20499;-47
2021/12/20 02:57:39;;;;;;;12.87;12.23;;;18.30;99.70;;;;;;5034361;28;20946;-47
2021/12/20 03:00:07;;;;;;;12.73;12.17;;;18.40;99.70;;;;;;5034224;28;20807;-50
2021/12/20 03:02:34;;;;;;;13.63;13.23;;;18.40;99.70;;;;;;5033898;28;20477;-46
2021/12/20 03:05:01;;;;;;;12.77;12.37;;;18.30;99.80;;;;;;5034244;28;20813;-45
2021/12/20 03:07:28;;;;;;;12.73;12.33;;;18.30;99.90;;;;;;5034293;28;20457;-46
2021/12/20 03:10:00;;;;;;;13.00;12.60;;;18.40;99.90;;;;;;5034153;28;20444;-47
2021/12/20 03:12:31;;;;;;;14.00;13.33;;;18.40;99.70;;;;;;5033980;28;20469;-46
2021/12/20 03:15:03;;;;;;;12.70;12.33;;;18.40;99.70;;;;;;5033934;28;20445;-51
2021/12/20 03:17:31;;;;;;;12.10;11.70;;;18.40;99.70;;;;;;5034105;28;20452;-48
2021/12/20 03:19:57;;;;;;;12.77;12.37;;;18.40;99.60;;;;;;5034032;28;20449;-47
2021/12/20 03:22:24;;;;;;;12.60;12.20;;;18.30;99.70;;;;;;5033671;28;20980;-47
2021/12/20 03:24:51;;;;;;;12.77;12.37;;;18.30;99.90;;;;;;5033780;28;20476;-46
2021/12/20 03:27:18;;;;;;;13.27;12.77;;;18.30;99.90;;;;;;5014140;28;20537;-45
2021/12/20 03:29:46;;;;;;;12.70;12.30;;;18.30;99.90;;;;;;5025590;28;20455;-49
2021/12/20 03:32:13;;;;;;;13.40;13.00;;;18.30;99.90;;;;;;5033484;28;21004;-48
2021/12/20 03:34:39;;;;;;;13.00;12.60;;;18.30;99.90;;;;;;5033709;28;20503;-48
2021/12/20 03:37:06;;;;;;;12.27;11.87;;;18.20;99.90;;;;;;5033422;28;20456;-50
2021/12/20 03:39:33;;;;;;;12.47;12.07;;;18.30;99.90;;;;;;5033577;28;20463;-48
2021/12/20 03:42:00;;;;;;;12.50;12.10;;;18.20;99.90;;;;;;5033127;28;20469;-45
2021/12/20 03:44:31;;;;;;;13.20;12.80;;;18.20;99.90;;;;;;5033585;28;20492;-46
2021/12/20 03:47:00;;;;;;;13.57;13.10;;;18.20;99.90;;;;;;5033338;28;20456;-46
2021/12/20 03:49:27;;;;;;;13.20;12.80;;;18.20;99.90;;;;;;5033632;28;20477;-45
2021/12/20 03:51:54;;;;;;;12.93;12.53;;;18.20;99.90;;;;;;5033079;28;20481;-49
2021/12/20 03:54:22;;;;;;;12.60;12.20;;;18.30;99.90;;;;;;5033473;28;20874;-45
2021/12/20 03:56:48;;;;;;;13.17;12.70;;;18.30;99.90;;;;;;5033230;28;20452;-46
2021/12/20 03:59:15;;;;;;;13.40;13.00;;;18.50;99.60;;;;;;5033208;28;20476;-46
2021/12/20 04:01:42;;;;;;;13.50;13.10;;;18.60;99.20;;;;;;5033020;28;20480;-46
2021/12/20 04:04:10;;;;;;;14.13;13.63;;;18.70;98.80;;;;;;5033192;28;20441;-46
2021/12/20 04:06:37;;;;;;;13.30;12.90;;;18.70;98.80;;;;;;5033032;28;20453;-46
2021/12/20 04:09:04;;;;;;;13.60;13.10;;;18.70;98.60;;;;;;5033252;28;20532;-46
2021/12/20 04:11:31;;;;;;;13.40;12.83;;;18.70;98.50;;;;;;5032804;28;20826;-46
2021/12/20 04:13:58;;;;;;;13.57;13.17;;;18.80;98.30;;;;;;5033039;28;20869;-46
2021/12/20 04:16:25;;;;;;;13.37;12.97;;;18.70;98.30;;;;;;5032851;28;20442;-46
2021/12/20 04:18:52;;;;;;;12.87;12.47;;;18.70;98.30;;;;;;5032990;28;20453;-48
2021/12/20 04:21:20;;;;;;;13.30;12.90;;;18.70;98.20;;;;;;5032820;28;20989;-46
2021/12/20 04:23:46;;;;;;;13.17;12.77;;;18.80;98.20;;;;;;5032684;28;20452;-45
2021/12/20 04:26:13;;;;;;;12.93;12.53;;;18.70;98.00;;;;;;5032517;28;20442;-46
2021/12/20 04:28:40;;;;;;;13.07;12.67;;;18.70;98.20;;;;;;5032737;28;20465;-46
2021/12/20 04:31:07;;;;;;;12.70;12.30;;;18.70;98.30;;;;;;5032607;28;20491;-45
2021/12/20 04:33:34;;;;;;;12.70;12.40;;;18.70;98.30;;;;;;5032458;28;20441;-47
2021/12/20 04:36:00;;;;;;;13.23;12.83;;;18.70;98.40;;;;;;5032413;28;20827;-46
2021/12/20 04:38:30;;;;;;;13.27;12.87;;;18.70;98.40;;;;;;5032567;28;20452;-46
2021/12/20 04:40:57;;;;;;;13.90;13.50;;;18.70;98.40;;;;;;5032480;28;20522;-47
2021/12/20 04:43:23;;;;;;;13.53;13.03;;;18.70;98.40;;;;;;5032204;28;20448;-45
2021/12/20 04:45:50;;;;;;;13.30;12.90;;;18.80;98.20;;;;;;5031456;28;20857;-48
2021/12/20 04:48:17;;;;;;;12.77;12.37;;;18.80;98.20;;;;;;5031977;28;20441;-46
2021/12/20 04:50:44;;;;;;;13.37;12.97;;;18.80;98.20;;;;;;5032216;28;20477;-45
2021/12/20 04:53:10;;;;;;;12.83;12.43;;;18.80;98.10;;;;;;5032059;28;20944;-50
2021/12/20 04:55:38;;;;;;;12.40;12.10;;;18.70;98.50;;;;;;5032023;28;20829;-46
2021/12/20 04:58:07;;;;;;;13.93;13.43;;;18.70;98.80;;;;;;5032243;28;20472;-47
2021/12/20 05:00:35;;;;;;;13.10;12.70;;;18.70;98.70;;;;;;5031959;28;20449;-47
2021/12/20 05:03:03;;;;;;;13.70;13.10;;;18.70;98.90;;;;;;5032034;28;20452;-46
2021/12/20 05:05:30;;;;;;;13.40;13.00;;;18.70;99.00;;;;;;5031886;28;20496;-45
2021/12/20 05:07:57;;;;;;;13.20;12.80;;;18.70;99.10;;;;;;5031932;28;21061;-48
2021/12/20 05:10:31;;;;;;;14.00;13.50;;;18.70;99.20;;;;;;5031892;28;20459;-47
2021/12/20 05:13:01;;;;;;;13.03;12.63;;;18.60;99.20;;;;;;5031708;28;20823;-45
2021/12/20 05:15:28;;;;;;;13.23;12.83;;;18.60;99.10;;;;;;5031510;28;20452;-47
2021/12/20 05:17:56;;;;;;;13.30;12.90;;;18.70;99.30;;;;;;5031567;28;20448;-45
2021/12/20 05:20:22;;;;;;;14.67;13.80;;;18.70;99.20;;;;;;5031835;28;20451;-45
2021/12/20 05:22:50;;;;;;;14.87;14.37;;;18.70;99.40;;;;;;5031595;28;20452;-47
2021/12/20 05:25:16;;;;;;;13.93;13.53;;;18.70;99.50;;;;;;5031617;28;20445;-45
2021/12/20 05:27:43;;;;;;;14.53;14.00;;;18.70;99.70;;;;;;5031677;28;20440;-46
2021/12/20 05:30:13;;;;;;;14.10;13.60;;;18.80;99.50;;;;;;5031675;28;20452;-47
2021/12/20 05:32:40;;;;;;;13.53;13.03;;;18.70;99.50;;;;;;5031379;28;20859;-46
2021/12/20 05:35:08;;;;;;;13.20;12.80;;;18.80;99.40;;;;;;5031421;28;20520;-48
2021/12/20 05:37:36;;;;;;;14.07;13.57;;;18.70;99.70;;;;;;5031706;28;20453;-46
2021/12/20 05:40:03;;;;;;;14.13;13.63;;;18.60;99.90;;;;;;5031555;28;20456;-46
2021/12/20 05:42:30;;;;;;;14.20;13.70;;;18.60;99.90;;;;;;5030741;28;20461;-48
2021/12/20 05:44:56;;;;;;;14.10;13.60;;;18.60;99.90;;;;;;5031552;28;20447;-46
2021/12/20 05:47:24;;;;;;;13.63;13.23;;;18.60;99.90;;;;;;5031401;28;20953;-47
2021/12/20 05:49:51;;;;;;;14.00;13.50;;;18.60;99.90;;;;;;5031481;28;20445;-45
2021/12/20 05:52:18;;;;;;;13.73;13.23;;;18.70;99.90;;;;;;5030806;28;20481;-46
2021/12/20 05:54:45;;;;;;;13.90;13.40;;;19.10;99.90;;;;;;5031425;28;20968;-46
2021/12/20 05:57:12;;;;;;;13.60;13.10;;;19.50;98.70;;;;;;5031376;28;20452;-50
2021/12/20 05:59:39;;;;;;;14.80;14.20;;;19.80;97.10;;;;;;5031414;28;20453;-46
2021/12/20 06:02:06;;;;;;;13.70;13.30;;;19.90;96.30;;;;;;5030772;28;20469;-46
2021/12/20 06:04:34;;;;;;;14.60;14.00;;;20.10;95.60;;;;;;5031289;28;20453;-46
2021/12/20 06:07:01;;;;;;;14.73;14.10;;;20.20;94.70;;;;;;5011616;28;20520;-48
2021/12/20 06:09:28;;;;;;;14.00;13.50;;;20.30;93.90;;;;;;5011633;28;20446;-46
2021/12/20 06:11:59;;;;;;;15.10;14.50;;;20.40;93.50;;;;;;5013634;28;20507;-45
2021/12/20 06:14:27;;;;;;;14.17;13.67;;;20.40;93.10;;;;;;5011485;28;20457;-46
2021/12/20 06:16:57;;;;;;;15.30;14.60;;;20.50;92.70;;;;;;5011485;28;20823;-51
2021/12/20 06:19:24;;;;;;;14.87;14.27;;;20.50;92.50;;;;;;5011549;28;20503;-47
2021/12/20 06:21:53;;;;;;;13.97;13.53;;;20.50;92.10;;;;;;5012966;28;20470;-46
2021/12/20 06:24:20;;;;;;;13.90;13.40;;;20.50;91.90;;;;;;5031089;28;20452;-47
2021/12/20 06:26:47;;;;;;;14.43;13.93;;;20.50;91.70;;;;;;5031235;28;20449;-46
2021/12/20 06:29:13;;;;;;;14.40;13.67;;;20.50;91.60;;;;;;5032384;28;20453;-46
2021/12/20 06:31:40;;;;;;;14.10;13.70;;;20.50;91.20;;;;;;5034286;28;20476;-46
2021/12/20 06:34:07;;;;;;;15.43;14.83;;;20.50;90.90;;;;;;5034726;28;20490;-51
2021/12/20 06:36:34;;;;;;;14.47;14.00;;;20.60;90.80;;;;;;5034831;28;20898;-45
2021/12/20 06:39:02;;;;;;;14.63;14.13;;;20.60;90.50;;;;;;5034864;28;20448;-48
2021/12/20 06:41:29;;;;;;;14.30;13.80;;;20.50;90.30;;;;;;5034518;28;20469;-50
2021/12/20 06:43:56;;;;;;;14.40;13.90;;;20.50;90.20;;;;;;5034319;28;20457;-47
2021/12/20 06:46:24;;;;;;;14.10;13.70;;;20.60;90.10;;;;;;5034727;28;20459;-45
2021/12/20 06:48:51;;;;;;;15.97;15.17;;;20.60;90.00;;;;;;5034311;28;20445;-49
2021/12/20 06:51:18;;;;;;;15.10;14.60;;;20.60;89.60;;;;;;5034333;28;20542;-46
2021/12/20 06:53:44;;;;;;;14.50;14.00;;;20.60;89.50;;;;;;5034056;28;20452;-45
2021/12/20 06:56:13;;;;;;;15.47;14.87;;;20.50;89.10;;;;;;5034464;28;20449;-47
2021/12/20 06:58:40;;;;;;;15.07;14.47;;;20.50;88.90;;;;;;5034530;28;20934;-46
2021/12/20 07:01:07;;;;;;;14.80;14.20;;;20.50;88.60;;;;;;5034199;28;20480;-48
2021/12/20 07:03:34;;;;;;;15.23;14.67;;;20.60;88.40;;;;;;5033950;28;20843;-45
2021/12/20 07:06:00;;;;;;;14.50;13.97;;;20.60;88.00;;;;;;5034286;28;20826;-46
2021/12/20 07:08:27;;;;;;;14.50;13.97;;;20.60;87.80;;;;;;5034344;28;20449;-46
2021/12/20 07:10:54;;;;;;;14.00;13.50;;;20.60;87.60;;;;;;5033918;28;20468;-47
2021/12/20 07:13:22;;;;;;;12.77;12.30;;;20.60;87.20;;;;;;5033741;28;20808;-48
2021/12/20 07:15:49;;;;;;;12.10;11.70;;;20.60;87.30;;;;;;5034150;28;20449;-49
2021/12/20 07:18:16;;;;;;;12.47;12.07;;;20.50;87.40;;;;;;5034021;28;20981;-46
2021/12/20 07:20:42;;;;;;;12.93;12.47;;;20.50;87.40;;;;;;5033990;28;20803;-48
2021/12/20 07:23:09;;;;;;;12.43;11.93;;;20.50;87.50;;;;;;5033577;28;20858;-46
2021/12/20 07:25:36;;;;;;;12.30;11.90;;;20.40;87.60;;;;;;5033807;28;20444;-46
2021/12/20 07:28:02;;;;;;;12.33;12.03;;;20.40;87.70;;;;;;5033774;28;20445;-48
2021/12/20 07:30:31;;;;;;;12.47;12.07;;;20.30;87.90;;;;;;5033865;28;20437;-45
2021/12/20 07:32:58;;;;;;;12.73;12.17;;;20.20;88.40;;;;;;5033047;28;20558;-46
2021/12/20 07:35:24;;;;;;;12.00;11.70;;;20.10;89.20;;;;;;5033836;28;20452;-45
2021/12/20 07:37:54;;;;;;;12.47;12.03;;;19.90;90.00;;;;;;5033846;28;20476;-47
2021/12/20 07:40:20;;;;;;;11.90;11.60;;;19.80;90.40;;;;;;5033293;28;20511;-46
2021/12/20 07:42:47;;;;;;;12.00;11.70;;;19.70;90.70;;;;;;5033318;28;20449;-47
2021/12/20 07:45:14;;;;;;;13.50;13.00;;;19.70;90.90;;;;;;5033635;28;20450;-46
2021/12/20 07:47:42;;;;;;;12.57;12.27;;;19.60;91.10;;;;;;5033479;28;20449;-46
2021/12/20 07:50:09;;;;;;;12.17;11.77;;;19.60;91.20;;;;;;5033559;28;20441;-45
2021/12/20 07:52:36;;;;;;;11.90;11.50;;;19.60;91.30;;;;;;5032774;28;20488;-46
2021/12/20 07:55:03;;;;;;;12.10;11.73;;;19.70;91.40;;;;;;5033336;28;20452;-45
2021/12/20 07:57:30;;;;;;;14.20;13.70;;;19.60;91.40;;;;;;5033427;28;20869;-46
2021/12/20 07:59:57;;;;;;;12.47;12.00;;;19.60;91.50;;;;;;5033249;28;20445;-47
2021/12/20 08:02:24;;;;;;;11.20;10.90;;;19.60;91.60;;;;;;5033334;28;20933;-47
2021/12/20 08:04:52;;;;;;;12.70;12.30;;;19.60;91.70;;;;;;5033241;28;21057;-47
2021/12/20 08:07:21;;;;;;;12.47;11.70;;;19.50;91.90;;;;;;5033185;28;20448;-47
2021/12/20 08:09:50;;;;;;;12.50;12.10;;;19.30;92.20;;;;;;5033161;28;20455;-49
2021/12/20 08:12:17;;;;;;;13.17;12.67;;;19.30;92.70;;;;;;5032383;28;20516;-49
2021/12/20 08:14:43;;;;;;;12.47;11.97;;;19.20;93.00;;;;;;5033128;28;20457;-47
2021/12/20 08:17:10;;;;;;;12.30;11.80;;;19.20;93.50;;;;;;5032936;28;20792;-47
2021/12/20 08:19:37;;;;;;;12.20;11.50;;;19.20;93.70;;;;;;5032887;28;20441;-48
2021/12/20 08:22:05;;;;;;;13.93;13.13;;;19.20;93.90;;;;;;5032460;28;20978;-48
2021/12/20 08:24:33;;;;;;;13.30;12.70;;;19.10;94.10;;;;;;5032832;28;20453;-50
2021/12/20 08:27:00;;;;;;;11.93;11.63;;;19.00;94.40;;;;;;5032757;28;20445;-47
2021/12/20 08:29:26;;;;;;;14.83;13.73;;;19.00;94.50;;;;;;5032780;28;20950;-47
2021/12/20 08:31:54;;;;;;;12.60;12.10;;;19.00;94.70;;;;;;5032100;28;20488;-47
2021/12/20 08:34:21;;;;;;;12.77;12.47;;;19.00;94.70;;;;;;5032398;28;20451;-46
2021/12/20 08:36:47;;;;;;;13.53;12.93;;;19.10;94.90;;;;;;5032664;28;20453;-47
2021/12/20 08:39:19;;;;;;;12.27;11.97;;;19.00;94.90;;;;;;5032626;28;20807;-47
2021/12/20 08:41:46;;;;;;;12.40;12.10;;;19.00;95.00;;;;;;5032093;28;20475;-47
2021/12/20 08:44:13;;;;;;;13.50;12.90;;;19.10;95.00;;;;;;5032446;28;20452;-48
2021/12/20 08:46:40;;;;;;;12.37;11.87;;;19.10;95.00;;;;;;5032441;28;20855;-48
2021/12/20 08:49:08;;;;;;;12.93;12.53;;;19.10;95.20;;;;;;5032447;28;20923;-49
2021/12/20 08:51:36;;;;;;;13.23;12.37;;;19.10;95.00;;;;;;5031241;28;20580;-47
2021/12/20 08:54:03;;;;;;;11.80;11.50;;;19.10;94.70;;;;;;5032184;28;20453;-51
2021/12/20 08:56:31;;;;;;;12.97;12.57;;;19.10;94.80;;;;;;5032409;28;20455;-47
2021/12/20 08:58:58;;;;;;;12.57;12.17;;;19.00;94.90;;;;;;5031899;28;20946;-47
2021/12/20 09:01:24;;;;;;;13.57;13.17;;;19.00;94.80;;;;;;5031965;28;20484;-50
2021/12/20 09:03:51;;;;;;;13.40;13.00;;;19.10;94.90;;;;;;5031802;28;20441;-47
2021/12/20 09:06:21;;;;;;;13.10;12.60;;;19.10;94.80;;;;;;5032151;28;20467;-47
2021/12/20 09:08:49;;;;;;;15.03;13.83;;;19.00;96.60;;;;;;5031876;28;20474;-49
2021/12/20 09:11:16;;;;;;;14.53;13.73;;;19.00;99.90;;;;;;5012315;28;20472;-52
2021/12/20 09:13:44;;;;;;;17.07;15.57;;;18.90;99.90;;;;;;5012048;28;20485;-48
2021/12/20 09:16:10;;;;;;;14.77;13.17;;;18.90;99.90;;;;;;5012187;28;20453;-49
2021/12/20 09:18:37;;;;;;;15.07;12.30;;;19.00;99.90;;;;;;5012142;28;20454;-47
2021/12/20 09:21:04;;;;;;;21.17;11.87;;;19.00;99.90;;;;;;5030282;28;21016;-47
2021/12/20 09:23:32;;;;;;;17.67;9.50;;;19.00;99.90;;;;;;5031699;28;20442;-47
2021/12/20 09:25:59;;;;;;;16.47;9.40;;;19.10;99.90;;;;;;5031767;28;20452;-47
2021/12/20 09:28:25;;;;;;;20.37;8.20;;;19.10;99.90;;;;;;5031752;28;20457;-50
2021/12/20 09:30:53;;;;;;;17.03;9.50;;;19.20;99.90;;;;;;5031393;28;20469;-47
2021/12/20 09:33:20;;;;;;;24.07;8.80;;;19.20;99.90;;;;;;5031129;28;20978;-46
2021/12/20 09:35:49;;;;;;;20.97;9.80;;;19.20;99.90;;;;;;5031355;28;20453;-46
2021/12/20 09:38:17;;;;;;;19.13;7.50;;;19.30;99.90;;;;;;5031531;28;20460;-46
2021/12/20 09:41:11;;;;;;;20.43;11.13;;;19.40;99.90;;;;;;5031624;28;20797;-46
2021/12/20 09:43:34;;;;;;;14.77;9.60;;;19.40;99.90;;;;;;5031264;28;20444;-45
2021/12/20 09:46:03;;;;;;;13.50;9.37;;;19.40;99.90;;;;;;5031440;28;20515;-45
2021/12/20 09:48:30;;;;;;;18.37;11.10;;;19.40;99.90;;;;;;5031609;28;20449;-46
2021/12/20 09:50:58;;;;;;;18.10;12.13;;;19.30;99.90;;;;;;5031520;28;20461;-46
2021/12/20 09:53:25;;;;;;;13.00;10.40;;;19.40;99.90;;;;;;5031277;28;20484;-45
2021/12/20 09:55:52;;;;;;;12.50;11.40;;;19.30;99.90;;;;;;5031194;28;20453;-46
2021/12/20 09:58:22;;;;;;;11.47;10.33;;;19.30;99.90;;;;;;5031442;28;20445;-46
2021/12/20 10:00:49;;;;;;;15.30;10.60;;;19.30;99.90;;;;;;5031292;28;20485;-46
2021/12/20 10:03:20;;;;;;;12.77;11.73;;;19.30;99.90;;;;;;5032333;28;20445;-45
2021/12/20 10:05:47;;;;;;;13.07;10.73;;;19.30;99.90;;;;;;5035457;28;20950;-47
2021/12/20 10:08:19;;;;;;;13.20;12.00;;;19.40;99.90;;;;;;5035285;28;20449;-49
2021/12/20 10:10:49;;;;;;;11.50;10.50;;;19.40;99.90;;;;;;5035119;28;20500;-46
2021/12/20 10:13:24;;;;;;;22.23;13.23;;;19.40;99.90;;;;;;5034703;28;21009;-46
2021/12/20 10:15:51;;;;;;;12.97;11.70;;;19.40;99.90;;;;;;5035220;28;20444;-44
2021/12/20 10:18:20;;;;;;;13.43;11.30;;;19.50;99.90;;;;;;5035099;28;20444;-45
2021/12/20 10:20:50;;;;;;;12.97;11.70;;;19.50;99.90;;;;;;5034654;28;20881;-46
2021/12/20 10:23:20;;;;;;;12.70;11.57;;;19.50;99.90;;;;;;5034869;28;20440;-45
2021/12/20 10:25:49;;;;;;;13.03;12.20;;;19.50;99.90;;;;;;5035114;28;20445;-45
2021/12/20 10:28:18;;;;;;;12.70;11.77;;;19.40;99.90;;;;;;5035048;28;20460;-45
2021/12/20 10:30:47;;;;;;;12.20;11.23;;;19.40;99.90;;;;;;5034576;28;20472;-45
2021/12/20 10:33:16;;;;;;;12.13;11.23;;;19.50;99.90;;;;;;5034669;28;20497;-47
2021/12/20 10:35:49;;;;;;;11.30;10.27;;;19.50;99.90;;;;;;5034700;28;20441;-46
2021/12/20 10:38:25;;;;;;;12.00;10.57;;;20.10;99.90;;;;;;5034897;28;20449;-45
2021/12/20 10:40:55;;;;;;;11.63;10.70;;;20.60;99.90;;;;;;5034662;28;20808;-45
2021/12/20 10:43:26;;;;;;;13.90;12.90;;;21.10;99.90;;;;;;5014922;28;20438;-45
2021/12/20 10:45:55;;;;;;;14.70;13.40;;;21.60;99.90;;;;;;5014966;28;20442;-45
2021/12/20 10:48:22;;;;;;;15.60;14.50;;;22.20;99.90;;;;;;5014984;28;20800;-45
2021/12/20 10:50:50;;;;;;;13.53;12.70;;;22.60;99.90;;;;;;5014688;28;20974;-45
2021/12/20 10:53:20;;;;;;;14.73;13.83;;;22.80;99.90;;;;;;5032354;28;20480;-44
2021/12/20 10:55:48;;;;;;;14.27;13.17;;;23.10;99.90;;;;;;5034552;28;20437;-45
2021/12/20 10:58:28;;;;;;;15.50;14.47;;;23.30;99.90;;;;;;5034474;28;21013;-45
2021/12/20 11:01:19;;;;;;;14.20;13.30;;;23.50;99.90;;;;;;5033827;28;20472;-46
2021/12/20 11:03:56;;;;;;;15.17;14.07;;;23.80;98.20;;;;;;5034271;28;20487;-45
2021/12/20 11:06:37;;;;;;;15.30;14.30;;;23.90;96.80;;;;;;5034233;28;20511;-45
2021/12/20 11:09:14;;;;;;;14.83;14.13;;;24.20;95.30;;;;;;5034384;28;20451;-46
2021/12/20 11:11:45;;;;;;;14.87;14.20;;;24.50;93.80;;;;;;5033611;28;20469;-45
2021/12/20 11:14:12;;;;;;;14.77;13.93;;;24.60;92.00;;;;;;5033667;28;20484;-46
2021/12/20 11:16:41;;;;;;;15.30;14.40;;;25.10;90.20;;;;;;5033764;28;20449;-47
2021/12/20 11:19:26;;;;;;;16.27;15.27;;;25.40;87.00;;;;;;5034138;28;20452;-49
2021/12/20 11:22:01;;;;;;;16.30;15.40;;;26.00;81.80;;;;;;5033373;28;20465;-51
2021/12/20 11:24:32;;;;;;;18.07;16.87;;;26.90;74.30;;;;;;5033940;28;20804;-48
2021/12/20 11:27:02;;;;;;;15.40;14.53;;;27.40;67.90;;;;;;5034099;28;20449;-47
2021/12/20 11:29:29;;;;;;;15.97;14.90;;;27.90;63.50;;;;;;5033994;28;20860;-46
2021/12/20 11:31:58;;;;;;;16.00;15.20;;;28.20;60.10;;;;;;5033262;28;21052;-48
2021/12/20 11:34:25;;;;;;;16.80;15.70;;;28.40;57.90;;;;;;5033967;28;20481;-50
2021/12/20 11:36:53;;;;;;;15.83;14.80;;;28.60;56.40;;;;;;5033889;28;20445;-48
2021/12/20 11:39:21;;;;;;;15.07;14.37;;;28.70;55.30;;;;;;5033720;28;20861;-47
2021/12/20 11:41:48;;;;;;;15.37;14.53;;;28.90;54.30;;;;;;5033532;28;20461;-47
2021/12/20 11:44:17;;;;;;;14.63;14.03;;;28.80;53.70;;;;;;5033163;28;20441;-47
2021/12/20 11:47:02;;;;;;;16.03;15.23;;;28.90;53.30;;;;;;5033632;28;20457;-47
2021/12/20 11:49:29;;;;;;;15.70;15.00;;;28.90;52.90;;;;;;5033463;28;20445;-50
2021/12/20 11:52:02;;;;;;;15.57;14.97;;;29.20;52.20;;;;;;5033144;28;20473;-51
2021/12/20 11:54:36;;;;;;;15.27;14.67;;;29.40;51.10;;;;;;5021101;28;20531;-46
2021/12/20 11:57:04;;;;;;;16.90;15.70;;;29.50;50.50;;;;;;5033360;28;20503;-49
2021/12/20 11:59:51;;;;;;;16.47;15.73;;;29.50;50.00;;;;;;5033387;28;20539;-50
2021/12/20 12:02:27;;;;;;;16.30;15.60;;;29.30;49.80;;;;;;5032604;28;21009;-49
2021/12/20 12:04:59;;;;;;;17.93;17.07;;;29.10;49.80;;;;;;5033381;28;20451;-46
2021/12/20 12:07:28;;;;;;;16.20;15.40;;;28.90;49.70;;;;;;5033359;28;20453;-46
2021/12/20 12:10:02;;;;;;;16.50;15.70;;;28.70;49.80;;;;;;5033040;28;20472;-47
2021/12/20 12:12:31;;;;;;;16.47;15.60;;;28.50;50.00;;;;;;5032471;28;20530;-50
2021/12/20 12:15:03;;;;;;;16.67;15.73;;;28.30;50.40;;;;;;5032965;28;20455;-51
2021/12/20 12:17:56;;;;;;;15.37;14.77;;;28.30;50.70;;;;;;5032941;28;20453;-48
2021/12/20 12:20:44;;;;;;;15.97;15.27;;;28.30;50.40;;;;;;5032622;28;20444;-46
2021/12/20 12:23:19;;;;;;;14.23;13.70;;;28.40;50.10;;;;;;5016329;28;20449;-46
2021/12/20 12:25:50;;;;;;;16.17;15.13;;;28.60;49.70;;;;;;5032313;28;20440;-46
2021/12/20 12:28:19;;;;;;;14.95;14.35;;;28.90;49.40;;;;;;5031536;28;20433;-48
2021/12/20 12:30:57;;;;;;;15.80;15.10;;;28.90;49.10;;;;;;5032502;28;20637;-49
2021/12/20 12:33:30;;;;;;;16.47;15.87;;;28.90;48.60;;;;;;5032382;28;20484;-48
2021/12/20 12:36:13;;;;;;;16.57;15.77;;;28.70;48.50;;;;;;5032554;28;20875;-51
2021/12/20 12:38:52;;;;;;;13.60;13.00;;;28.50;48.80;;;;;;5019353;28;20446;-46
2021/12/20 12:41:25;;;;;;;16.00;15.00;;;28.40;49.10;;;;;;5032728;28;20513;-51
2021/12/20 12:44:19;;;;;;;15.33;14.77;;;28.40;49.40;;;;;;5032368;28;20912;-49